createdAt,value
2023-04-18T00:00:54.444Z,27.99
2023-04-18T00:01:54.546Z,25.40
2023-04-18T00:02:54.644Z,27.44
2023-04-18T00:03:54.568Z,29.70
2023-04-18T00:04:54.641Z,27.03
2023-04-18T00:05:54.544Z,25.00
2023-04-18T00:06:54.585Z,28.05
2023-04-18T00:07:54.621Z,26.92
2023-04-18T00:08:54.665Z,28.82
2023-04-18T00:09:54.650Z,29.27
2023-04-18T00:10:54.641Z,30.70
2023-04-18T00:11:54.681Z,27.05
2023-04-18T00:12:54.684Z,28.92
2023-04-18T00:13:54.701Z,26.97
2023-04-18T00:14:54.723Z,27.11
2023-04-18T00:15:54.758Z,26.36
2023-04-18T00:16:54.785Z,28.59
2023-04-18T00:17:54.827Z,27.04
2023-04-18T00:18:54.810Z,26.47
2023-04-18T00:19:54.852Z,26.04
2023-04-18T00:20:54.861Z,26.47
2023-04-18T00:21:54.874Z,25.28
2023-04-18T00:22:54.897Z,26.35
2023-04-18T00:23:54.952Z,30.72
2023-04-18T00:24:54.955Z,27.24
2023-04-18T00:25:54.957Z,26.28
2023-04-18T00:26:54.968Z,27.43
2023-04-18T00:27:54.987Z,28.11
2023-04-18T00:28:55.013Z,28.99
2023-04-18T00:29:55.036Z,26.98
2023-04-18T00:30:55.126Z,28.32
2023-04-18T00:31:55.103Z,29.07
2023-04-18T00:32:55.134Z,28.14
2023-04-18T00:33:55.129Z,28.39
2023-04-18T00:34:55.157Z,28.15
2023-04-18T00:35:55.182Z,27.25
2023-04-18T00:36:55.179Z,28.94
2023-04-18T00:37:55.245Z,27.74
2023-04-18T00:38:55.240Z,28.32
2023-04-18T00:39:55.309Z,27.74
2023-04-18T00:40:55.313Z,27.79
2023-04-18T00:41:55.342Z,28.45
2023-04-18T00:42:55.354Z,28.39
2023-04-18T00:43:55.364Z,29.62
2023-04-18T00:44:55.384Z,28.27
2023-04-18T00:45:55.458Z,25.58
2023-04-18T00:46:55.427Z,27.59
2023-04-18T00:47:55.546Z,26.13
2023-04-18T00:48:55.524Z,25.68
2023-04-18T00:49:55.521Z,25.97
2023-04-18T00:50:55.533Z,26.85
2023-04-18T00:51:55.588Z,27.98
2023-04-18T00:52:55.578Z,27.84
2023-04-18T00:53:55.617Z,26.58
2023-04-18T00:54:55.700Z,27.62
2023-04-18T00:55:55.658Z,26.21
2023-04-18T00:56:55.689Z,25.25
2023-04-18T00:57:55.727Z,28.75
2023-04-18T00:58:55.724Z,26.17
2023-04-18T00:59:55.770Z,25.56
2023-04-18T01:00:55.790Z,29.05
2023-04-18T01:01:55.958Z,26.89
2023-04-18T01:02:56.061Z,27.10
2023-04-18T01:03:55.955Z,27.62
2023-04-18T01:04:55.908Z,30.13
2023-04-18T01:05:55.940Z,28.53
2023-04-18T01:06:55.941Z,26.05
2023-04-18T01:07:55.973Z,28.67
2023-04-18T01:08:56.015Z,26.58
2023-04-18T01:09:56.049Z,26.45
2023-04-18T01:10:56.080Z,28.30
2023-04-18T01:11:56.098Z,28.30
2023-04-18T01:12:56.129Z,26.78
2023-04-18T01:13:56.134Z,27.19
2023-04-18T01:14:56.201Z,26.90
2023-04-18T01:15:56.249Z,27.40
2023-04-18T01:16:56.245Z,27.14
2023-04-18T01:17:56.291Z,26.71
2023-04-18T01:18:56.302Z,28.38
2023-04-18T01:19:56.301Z,27.89
2023-04-18T01:20:56.350Z,30.87
2023-04-18T01:21:56.370Z,30.06
2023-04-18T01:22:56.386Z,29.56
2023-04-18T01:23:56.448Z,26.93
2023-04-18T01:24:56.480Z,27.40
2023-04-18T01:25:57.178Z,28.06
2023-04-18T01:26:56.521Z,28.69
2023-04-18T01:27:56.550Z,27.96
2023-04-18T01:28:56.556Z,26.43
2023-04-18T01:29:56.594Z,26.44
2023-04-18T01:30:56.663Z,29.21
2023-04-18T01:31:56.650Z,30.90
2023-04-18T01:32:56.688Z,26.52
2023-04-18T01:33:56.691Z,27.69
2023-04-18T01:34:56.745Z,28.34
2023-04-18T01:35:56.765Z,27.76
2023-04-18T01:36:56.814Z,31.20
2023-04-18T01:37:56.871Z,28.99
2023-04-18T01:38:56.884Z,27.57
2023-04-18T01:39:56.885Z,25.86
2023-04-18T01:40:56.916Z,28.66
2023-04-18T01:41:56.941Z,27.22
2023-04-18T01:42:57.061Z,28.83
2023-04-18T01:43:57.036Z,29.49
2023-04-18T01:44:57.053Z,26.40
2023-04-18T01:45:57.077Z,28.41
2023-04-18T01:46:57.194Z,25.32
2023-04-18T01:47:57.202Z,29.35
2023-04-18T01:48:57.210Z,27.78
2023-04-18T01:49:57.234Z,28.57
2023-04-18T01:50:57.237Z,25.26
2023-04-18T01:51:57.284Z,28.68
2023-04-18T01:52:57.301Z,28.65
2023-04-18T01:53:57.341Z,29.16
2023-04-18T01:54:57.397Z,25.88
2023-04-18T01:55:57.400Z,28.64
2023-04-18T01:56:57.427Z,27.96
2023-04-18T01:57:57.477Z,27.41
2023-04-18T01:58:57.513Z,29.03
2023-04-18T01:59:57.538Z,27.40
2023-04-18T02:00:57.679Z,26.89
2023-04-18T02:01:57.679Z,28.28
2023-04-18T02:02:57.787Z,26.53
2023-04-18T02:03:57.792Z,29.59
2023-04-18T02:04:57.713Z,28.73
2023-04-18T02:05:57.764Z,30.21
2023-04-18T02:06:57.778Z,31.27
2023-04-18T02:07:57.900Z,29.07
2023-04-18T02:08:57.828Z,28.08
2023-04-18T02:09:57.897Z,28.52
2023-04-18T02:10:57.929Z,27.93
2023-04-18T02:11:57.948Z,28.58
2023-04-18T02:12:57.986Z,26.53
2023-04-18T02:13:58.007Z,29.61
2023-04-18T02:14:58.022Z,28.33
2023-04-18T02:15:58.119Z,27.41
2023-04-18T02:16:58.181Z,26.36
2023-04-18T02:17:58.143Z,30.82
2023-04-18T02:18:58.173Z,25.00
2023-04-18T02:19:58.202Z,26.62
2023-04-18T02:20:58.229Z,27.58
2023-04-18T02:21:58.244Z,25.88
2023-04-18T02:22:58.274Z,27.65
2023-04-18T02:23:58.338Z,27.55
2023-04-18T02:24:58.358Z,28.79
2023-04-18T02:25:58.388Z,25.65
2023-04-18T02:26:58.440Z,26.49
2023-04-18T02:27:58.461Z,26.98
2023-04-18T02:28:58.501Z,28.38
2023-04-18T02:29:58.546Z,29.04
2023-04-18T02:30:58.574Z,31.98
2023-04-18T02:31:58.643Z,27.39
2023-04-18T02:32:58.713Z,30.32
2023-04-18T02:33:58.675Z,25.75
2023-04-18T02:34:58.706Z,29.31
2023-04-18T02:35:58.746Z,29.73
2023-04-18T02:36:58.784Z,30.32
2023-04-18T02:37:58.818Z,27.24
2023-04-18T02:38:58.832Z,28.49
2023-04-18T02:39:58.905Z,26.58
2023-04-18T02:40:58.906Z,27.27
2023-04-18T02:41:58.951Z,27.66
2023-04-18T02:42:59.002Z,26.51
2023-04-18T02:43:59.012Z,27.08
2023-04-18T02:44:59.051Z,28.24
2023-04-18T02:45:59.082Z,27.95
2023-04-18T02:46:59.131Z,29.43
2023-04-18T02:47:59.265Z,27.68
2023-04-18T02:48:59.201Z,28.77
2023-04-18T02:49:59.244Z,28.41
2023-04-18T02:50:59.238Z,26.37
2023-04-18T02:51:59.302Z,27.94
2023-04-18T02:52:59.313Z,28.74
2023-04-18T02:53:59.366Z,29.64
2023-04-18T02:54:59.397Z,26.08
2023-04-18T02:55:59.438Z,28.25
2023-04-18T02:56:59.468Z,29.02
2023-04-18T02:57:59.488Z,26.04
2023-04-18T02:58:59.517Z,27.92
2023-04-18T02:59:59.561Z,30.12
2023-04-18T03:00:59.666Z,30.69
2023-04-18T03:01:59.661Z,30.62
2023-04-18T03:02:59.858Z,29.83
2023-04-18T03:03:59.698Z,28.13
2023-04-18T03:04:59.778Z,26.47
2023-04-18T03:05:59.772Z,32.74
2023-04-18T03:06:59.810Z,29.17
2023-04-18T03:07:59.841Z,29.69
2023-04-18T03:08:59.907Z,30.05
2023-04-18T03:09:59.947Z,31.66
2023-04-18T03:11:00.000Z,25.81
2023-04-18T03:12:00.063Z,26.90
2023-04-18T03:13:00.015Z,30.32
2023-04-18T03:14:00.074Z,33.12
2023-04-18T03:15:00.106Z,29.82
2023-04-18T03:16:00.234Z,27.06
2023-04-18T03:17:00.199Z,27.28
2023-04-18T03:18:00.290Z,25.84
2023-04-18T03:19:00.242Z,26.49
2023-04-18T03:20:00.316Z,27.21
2023-04-18T03:21:00.323Z,32.07
2023-04-18T03:22:00.351Z,26.42
2023-04-18T03:23:00.429Z,26.27
2023-04-18T03:24:00.483Z,27.30
2023-04-18T03:25:00.474Z,27.21
2023-04-18T03:26:00.540Z,30.02
2023-04-18T03:27:00.522Z,28.22
2023-04-18T03:28:00.575Z,28.09
2023-04-18T03:29:00.619Z,27.08
2023-04-18T03:30:00.658Z,26.96
2023-04-18T03:31:00.703Z,28.46
2023-04-18T03:32:00.844Z,29.59
2023-04-18T03:33:00.807Z,28.80
2023-04-18T03:34:00.809Z,26.16
2023-04-18T03:35:00.854Z,25.99
2023-04-18T03:36:00.825Z,25.10
2023-04-18T03:37:00.882Z,26.39
2023-04-18T03:38:00.930Z,31.79
2023-04-18T03:39:00.987Z,29.37
2023-04-18T03:40:00.999Z,25.54
2023-04-18T03:41:01.039Z,30.12
2023-04-18T03:42:01.080Z,27.66
2023-04-18T03:43:01.134Z,28.38
2023-04-18T03:44:01.156Z,25.99
2023-04-18T03:45:01.171Z,27.17
2023-04-18T03:46:01.302Z,30.18
2023-04-18T03:47:01.287Z,30.24
2023-04-18T03:48:01.358Z,30.19
2023-04-18T03:49:01.414Z,28.88
2023-04-18T03:50:01.327Z,28.01
2023-04-18T03:51:01.398Z,27.57
2023-04-18T03:52:01.419Z,27.56
2023-04-18T03:53:01.492Z,27.34
2023-04-18T03:54:01.520Z,27.83
2023-04-18T03:55:01.584Z,27.87
2023-04-18T03:56:01.624Z,27.23
2023-04-18T03:57:01.615Z,28.14
2023-04-18T03:58:01.695Z,27.81
2023-04-18T03:59:01.679Z,31.10
2023-04-18T04:00:01.831Z,28.45
2023-04-18T04:01:01.825Z,28.08
2023-04-18T04:02:01.990Z,28.47
2023-04-18T04:03:02.110Z,27.85
2023-04-18T04:04:02.073Z,28.85
2023-04-18T04:05:01.991Z,27.34
2023-04-18T04:06:02.006Z,29.88
2023-04-18T04:07:02.114Z,26.72
2023-04-18T04:08:02.208Z,26.18
2023-04-18T04:09:02.139Z,30.68
2023-04-18T04:10:02.152Z,25.74
2023-04-18T04:11:02.177Z,28.06
2023-04-18T04:12:02.204Z,26.73
2023-04-18T04:13:02.249Z,26.90
2023-04-18T04:14:02.315Z,28.75
2023-04-18T04:15:02.350Z,27.05
2023-04-18T04:16:02.418Z,29.54
2023-04-18T04:17:02.420Z,29.38
2023-04-18T04:18:02.497Z,29.56
2023-04-18T04:19:02.458Z,27.57
2023-04-18T04:20:02.540Z,26.11
2023-04-18T04:21:02.578Z,27.79
2023-04-18T04:22:02.627Z,28.73
2023-04-18T04:23:02.644Z,28.77
2023-04-18T04:24:02.687Z,31.19
2023-04-18T04:25:02.714Z,29.35
2023-04-18T04:26:02.747Z,29.28
2023-04-18T04:27:02.824Z,29.10
2023-04-18T04:28:02.917Z,26.75
2023-04-18T04:29:02.886Z,25.00
2023-04-18T04:30:02.924Z,29.34
2023-04-18T04:31:02.946Z,31.50
2023-04-18T04:32:03.019Z,25.80
2023-04-18T04:33:03.035Z,28.60
2023-04-18T04:34:03.067Z,28.49
2023-04-18T04:35:03.102Z,28.86
2023-04-18T04:36:03.188Z,29.59
2023-04-18T04:37:03.191Z,27.11
2023-04-18T04:38:03.266Z,29.13
2023-04-18T04:39:03.286Z,29.03
2023-04-18T04:40:03.320Z,28.84
2023-04-18T04:41:03.368Z,28.84
2023-04-18T04:42:03.387Z,27.16
2023-04-18T04:43:03.436Z,28.46
2023-04-18T04:44:03.487Z,26.62
2023-04-18T04:45:03.570Z,26.03
2023-04-18T04:46:03.604Z,28.21
2023-04-18T04:47:03.599Z,28.10
2023-04-18T04:48:03.722Z,29.25
2023-04-18T04:49:03.723Z,27.45
2023-04-18T04:50:03.769Z,27.82
2023-04-18T04:51:03.762Z,27.18
2023-04-18T04:52:03.815Z,28.94
2023-04-18T04:53:03.891Z,27.45
2023-04-18T04:54:03.902Z,31.53
2023-04-18T04:55:03.965Z,28.46
2023-04-18T04:56:04.006Z,26.80
2023-04-18T04:57:04.079Z,27.56
2023-04-18T04:58:04.128Z,27.88
2023-04-18T04:59:04.179Z,28.53
2023-04-18T05:00:04.273Z,26.25
2023-04-18T05:01:04.376Z,32.95
2023-04-18T05:02:04.465Z,28.75
2023-04-18T05:03:04.541Z,31.09
2023-04-18T05:04:04.570Z,28.79
2023-04-18T05:05:04.543Z,31.65
2023-04-18T05:06:04.608Z,28.52
2023-04-18T05:07:04.626Z,29.95
2023-04-18T05:08:04.706Z,32.26
2023-04-18T05:09:04.748Z,32.60
2023-04-18T05:10:04.806Z,29.51
2023-04-18T05:11:04.895Z,28.89
2023-04-18T05:12:04.938Z,28.25
2023-04-18T05:13:05.010Z,29.47
2023-04-18T05:14:05.013Z,28.75
2023-04-18T05:15:05.087Z,28.13
2023-04-18T05:16:05.126Z,27.50
2023-04-18T05:17:05.243Z,28.10
2023-04-18T05:18:05.354Z,28.45
2023-04-18T05:19:05.350Z,28.67
2023-04-18T05:20:05.404Z,30.60
2023-04-18T05:21:05.427Z,32.66
2023-04-18T05:22:05.494Z,31.30
2023-04-18T05:23:05.548Z,28.42
2023-04-18T05:24:05.630Z,27.98
2023-04-18T05:25:05.677Z,30.54
2023-04-18T05:26:05.741Z,32.01
2023-04-18T05:27:05.779Z,32.07
2023-04-18T05:28:05.832Z,30.13
2023-04-18T05:29:05.908Z,29.27
2023-04-18T05:30:05.979Z,30.37
2023-04-18T05:31:06.034Z,27.52
2023-04-18T05:32:06.136Z,29.78
2023-04-18T05:33:06.207Z,31.98
2023-04-18T05:34:06.205Z,26.90
2023-04-18T05:35:06.260Z,27.88
2023-04-18T05:36:06.315Z,29.20
2023-04-18T05:37:06.394Z,32.01
2023-04-18T05:38:06.423Z,33.70
2023-04-18T05:39:06.523Z,33.01
2023-04-18T05:40:06.848Z,34.39
2023-04-18T05:41:06.647Z,34.06
2023-04-18T05:42:06.651Z,34.16
2023-04-18T05:43:06.732Z,32.48
2023-04-18T05:44:06.763Z,36.41
2023-04-18T05:45:06.850Z,36.19
2023-04-18T05:46:06.863Z,38.68
2023-04-18T05:47:06.945Z,45.41
2023-04-18T05:48:06.901Z,45.15
2023-04-18T05:49:06.932Z,47.89
2023-04-18T05:50:06.963Z,60.55
2023-04-18T05:51:06.982Z,54.86
2023-04-18T05:52:07.017Z,58.64
2023-04-18T05:53:07.001Z,64.10
2023-04-18T05:54:07.062Z,64.14
2023-04-18T05:55:07.055Z,69.23
2023-04-18T05:56:07.085Z,75.66
2023-04-18T05:57:07.071Z,78.90
2023-04-18T05:58:07.096Z,85.78
2023-04-18T05:59:07.099Z,87.84
2023-04-18T06:00:07.068Z,91.05
2023-04-18T06:01:07.071Z,96.45
2023-04-18T06:02:07.193Z,96.66
2023-04-18T06:03:09.280Z,102.50
2023-04-18T06:04:07.200Z,108.59
2023-04-18T06:05:07.309Z,110.91
2023-04-18T06:06:07.082Z,115.64
2023-04-18T06:07:07.071Z,117.27
2023-04-18T06:08:07.179Z,122.29
2023-04-18T06:09:07.061Z,123.05
2023-04-18T06:10:07.049Z,130.81
2023-04-18T06:11:07.091Z,133.94
2023-04-18T06:12:07.024Z,131.47
2023-04-18T06:13:07.051Z,133.12
2023-04-18T06:14:07.025Z,141.78
2023-04-18T06:15:07.042Z,147.67
2023-04-18T06:16:07.050Z,152.48
2023-04-18T06:17:07.049Z,161.61
2023-04-18T06:18:07.030Z,167.28
2023-04-18T06:19:07.015Z,174.28
2023-04-18T06:20:07.321Z,178.79
2023-04-18T06:21:06.991Z,179.90
2023-04-18T06:22:06.987Z,186.35
2023-04-18T06:23:06.991Z,188.15
2023-04-18T06:24:07.085Z,193.66
2023-04-18T06:25:06.970Z,192.78
2023-04-18T06:26:06.937Z,195.94
2023-04-18T06:27:09.313Z,205.97
2023-04-18T06:28:07.985Z,206.46
2023-04-18T06:29:06.947Z,207.06
2023-04-18T06:30:06.938Z,207.64
2023-04-18T06:31:06.950Z,212.56
2023-04-18T06:32:06.919Z,220.07
2023-04-18T06:33:06.978Z,226.26
2023-04-18T06:34:06.890Z,233.86
2023-04-18T06:35:06.940Z,237.16
2023-04-18T06:36:06.865Z,236.56
2023-04-18T06:37:06.861Z,239.74
2023-04-18T06:38:06.851Z,240.41
2023-04-18T06:39:06.873Z,238.87
2023-04-18T06:40:06.906Z,239.31
2023-04-18T06:41:06.886Z,243.52
2023-04-18T06:42:06.893Z,246.18
2023-04-18T06:43:06.925Z,247.90
2023-04-18T06:44:06.968Z,245.78
2023-04-18T06:45:07.319Z,245.89
2023-04-18T06:46:07.150Z,246.69
2023-04-18T06:47:07.153Z,246.30
2023-04-18T06:48:07.224Z,242.37
2023-04-18T06:49:07.223Z,241.45
2023-04-18T06:50:07.276Z,240.57
2023-04-18T06:51:07.286Z,244.57
2023-04-18T06:52:07.354Z,247.18
2023-04-18T06:53:07.369Z,246.41
2023-04-18T06:54:07.411Z,249.82
2023-04-18T06:55:07.393Z,246.66
2023-04-18T06:56:08.411Z,242.51
2023-04-18T06:57:07.450Z,241.53
2023-04-18T06:58:07.505Z,246.50
2023-04-18T06:59:07.520Z,240.35
2023-04-18T07:00:07.570Z,244.82
2023-04-18T07:01:07.628Z,245.51
2023-04-18T07:02:07.638Z,248.20
2023-04-18T07:03:09.522Z,250.00
2023-04-18T07:04:07.727Z,249.84
2023-04-18T07:05:07.963Z,249.80
2023-04-18T07:06:07.614Z,249.82
2023-04-18T07:07:07.592Z,247.86
2023-04-18T07:08:07.566Z,245.35
2023-04-18T07:09:07.574Z,250.00
2023-04-18T07:10:07.561Z,245.95
2023-04-18T07:11:07.592Z,245.92
2023-04-18T07:12:07.559Z,247.56
2023-04-18T07:13:07.525Z,248.05
2023-04-18T07:14:07.566Z,250.00
2023-04-18T07:15:07.524Z,245.78
2023-04-18T07:16:08.271Z,250.00
2023-04-18T07:17:07.628Z,249.72
2023-04-18T07:18:07.591Z,249.40
2023-04-18T07:19:07.519Z,249.34
2023-04-18T07:20:07.483Z,248.92
2023-04-18T07:21:07.936Z,249.30
2023-04-18T07:22:07.792Z,249.54
2023-04-18T07:23:07.478Z,245.21
2023-04-18T07:24:07.456Z,246.62
2023-04-18T07:25:07.439Z,250.00
2023-04-18T07:26:07.446Z,250.00
2023-04-18T07:27:07.429Z,248.68
2023-04-18T07:28:07.603Z,248.85
2023-04-18T07:29:07.454Z,248.90
2023-04-18T07:30:07.407Z,249.58
2023-04-18T07:31:07.453Z,247.73
2023-04-18T07:32:08.493Z,247.21
2023-04-18T07:33:07.404Z,247.92
2023-04-18T07:34:07.395Z,249.16
2023-04-18T07:35:07.385Z,249.64
2023-04-18T07:36:07.404Z,250.00
2023-04-18T07:37:07.377Z,248.69
2023-04-18T07:38:07.371Z,249.15
2023-04-18T07:39:07.370Z,248.09
2023-04-18T07:40:07.364Z,249.36
2023-04-18T07:41:07.398Z,240.38
2023-04-18T07:42:07.916Z,246.99
2023-04-18T07:43:07.390Z,247.25
2023-04-18T07:44:07.345Z,243.21
2023-04-18T07:45:07.350Z,248.36
2023-04-18T07:46:07.448Z,247.61
2023-04-18T07:47:07.304Z,247.83
2023-04-18T07:48:07.399Z,248.95
2023-04-18T07:49:07.420Z,249.91
2023-04-18T07:50:07.418Z,249.83
2023-04-18T07:51:07.484Z,250.00
2023-04-18T07:52:07.527Z,247.93
2023-04-18T07:53:07.570Z,249.68
2023-04-18T07:54:07.638Z,249.42
2023-04-18T07:55:07.664Z,249.37
2023-04-18T07:56:07.714Z,248.63
2023-04-18T07:57:07.774Z,249.14
2023-04-18T07:58:07.796Z,248.78
2023-04-18T07:59:07.849Z,249.31
2023-04-18T08:00:08.189Z,250.00
2023-04-18T08:01:07.972Z,250.00
2023-04-18T08:02:08.005Z,249.86
2023-04-18T08:03:08.260Z,248.51
2023-04-18T08:04:08.316Z,247.51
2023-04-18T08:05:08.183Z,238.98
2023-04-18T08:06:08.156Z,232.91
2023-04-18T08:07:08.208Z,234.72
2023-04-18T08:08:08.272Z,219.21
2023-04-18T08:09:08.288Z,221.67
2023-04-18T08:10:08.361Z,220.35
2023-04-18T08:11:08.439Z,205.05
2023-04-18T08:12:08.458Z,210.05
2023-04-18T08:13:08.508Z,206.63
2023-04-18T08:14:08.581Z,196.78
2023-04-18T08:15:08.645Z,191.68
2023-04-18T08:16:08.797Z,196.82
2023-04-18T08:17:08.780Z,183.82
2023-04-18T08:18:08.813Z,182.75
2023-04-18T08:19:08.910Z,176.85
2023-04-18T08:20:08.960Z,175.26
2023-04-18T08:21:08.986Z,168.78
2023-04-18T08:22:09.053Z,165.07
2023-04-18T08:23:11.420Z,161.59
2023-04-18T08:24:09.127Z,155.81
2023-04-18T08:25:09.088Z,155.33
2023-04-18T08:26:09.076Z,145.08
2023-04-18T08:27:09.077Z,133.15
2023-04-18T08:28:09.037Z,137.94
2023-04-18T08:29:09.065Z,136.40
2023-04-18T08:30:09.046Z,142.88
2023-04-18T08:31:09.075Z,144.39
2023-04-18T08:32:09.078Z,143.45
2023-04-18T08:33:09.053Z,138.75
2023-04-18T08:34:09.021Z,138.35
2023-04-18T08:35:09.018Z,132.06
2023-04-18T08:36:09.416Z,123.84
2023-04-18T08:37:08.982Z,111.13
2023-04-18T08:38:09.015Z,111.22
2023-04-18T08:39:08.971Z,101.77
2023-04-18T08:40:08.988Z,92.53
2023-04-18T08:41:08.972Z,78.48
2023-04-18T08:42:09.000Z,83.05
2023-04-18T08:43:08.968Z,83.93
2023-04-18T08:44:08.957Z,74.52
2023-04-18T08:45:08.966Z,56.15
2023-04-18T08:46:09.538Z,33.58
2023-04-18T08:47:08.958Z,22.25
2023-04-18T08:48:09.050Z,27.02
2023-04-18T08:49:10.749Z,26.63
2023-04-18T08:50:08.943Z,30.54
2023-04-18T08:51:09.411Z,25.00
2023-04-18T08:52:08.870Z,24.39
2023-04-18T08:53:08.873Z,25.00
2023-04-18T08:54:08.866Z,25.46
2023-04-18T08:55:08.879Z,24.99
2023-04-18T08:56:08.853Z,26.01
2023-04-18T08:57:08.858Z,25.53
2023-04-18T08:58:08.836Z,24.81
2023-04-18T08:59:08.832Z,25.42
2023-04-18T09:00:08.789Z,25.00
2023-04-18T09:01:08.838Z,25.00
2023-04-18T09:02:08.862Z,25.07
2023-04-18T09:03:08.954Z,28.07
2023-04-18T09:04:08.930Z,25.00
2023-04-18T09:05:08.800Z,29.12
2023-04-18T09:06:08.778Z,25.27
2023-04-18T09:07:08.760Z,25.77
2023-04-18T09:08:08.764Z,25.34
2023-04-18T09:09:08.753Z,25.66
2023-04-18T09:10:08.768Z,28.64
2023-04-18T09:11:08.726Z,32.22
2023-04-18T09:12:08.745Z,30.58
2023-04-18T09:13:08.734Z,27.17
2023-04-18T09:14:08.734Z,27.34
2023-04-18T09:15:08.683Z,29.13
2023-04-18T09:16:08.765Z,30.03
2023-04-18T09:17:08.689Z,27.75
2023-04-18T09:18:08.740Z,27.39
2023-04-18T09:19:08.701Z,26.62
2023-04-18T09:20:08.760Z,27.69
2023-04-18T09:21:08.784Z,28.32
2023-04-18T09:22:08.891Z,25.40
2023-04-18T09:23:08.910Z,26.52
2023-04-18T09:24:08.996Z,25.27
2023-04-18T09:25:09.064Z,28.19
2023-04-18T09:26:09.166Z,30.49
2023-04-18T09:27:09.180Z,35.08
2023-04-18T09:28:09.215Z,32.82
2023-04-18T09:29:09.322Z,32.30
2023-04-18T09:30:09.385Z,36.35
2023-04-18T09:31:09.560Z,40.33
2023-04-18T09:32:09.500Z,41.59
2023-04-18T09:33:09.621Z,39.05
2023-04-18T09:34:10.418Z,35.23
2023-04-18T09:35:09.626Z,40.44
2023-04-18T09:36:09.914Z,39.31
2023-04-18T09:37:09.769Z,43.79
2023-04-18T09:38:09.748Z,44.81
2023-04-18T09:39:09.820Z,44.32
2023-04-18T09:40:09.887Z,47.93
2023-04-18T09:41:09.926Z,51.38
2023-04-18T09:42:09.942Z,53.91
2023-04-18T09:43:10.007Z,53.34
2023-04-18T09:44:12.326Z,60.05
2023-04-18T09:45:10.059Z,55.30
2023-04-18T09:46:10.453Z,56.82
2023-04-18T09:47:10.029Z,60.47
2023-04-18T09:48:10.022Z,63.58
2023-04-18T09:49:11.131Z,73.36
2023-04-18T09:50:09.986Z,77.50
2023-04-18T09:51:10.007Z,80.92
2023-04-18T09:52:09.971Z,83.94
2023-04-18T09:53:09.979Z,84.85
2023-04-18T09:54:09.981Z,90.77
2023-04-18T09:55:09.969Z,91.36
2023-04-18T09:56:09.960Z,94.74
2023-04-18T09:57:09.950Z,96.93
2023-04-18T09:58:09.970Z,97.51
2023-04-18T09:59:10.024Z,103.09
2023-04-18T10:00:09.912Z,105.83
2023-04-18T10:01:09.934Z,106.56
2023-04-18T10:02:09.940Z,112.42
2023-04-18T10:03:10.066Z,113.55
2023-04-18T10:04:10.018Z,115.91
2023-04-18T10:05:09.934Z,117.40
2023-04-18T10:06:09.860Z,120.83
2023-04-18T10:07:09.854Z,120.95
2023-04-18T10:08:10.089Z,122.61
2023-04-18T10:09:09.900Z,125.35
2023-04-18T10:10:09.855Z,128.84
2023-04-18T10:11:09.908Z,129.16
2023-04-18T10:12:09.869Z,129.52
2023-04-18T10:13:09.824Z,132.19
2023-04-18T10:14:09.809Z,133.98
2023-04-18T10:15:09.812Z,137.30
2023-04-18T10:16:09.874Z,139.79
2023-04-18T10:17:09.820Z,141.70
2023-04-18T10:18:09.847Z,142.78
2023-04-18T10:19:09.830Z,146.22
2023-04-18T10:20:09.924Z,148.42
2023-04-18T10:21:09.954Z,151.07
2023-04-18T10:22:10.012Z,151.56
2023-04-18T10:23:10.066Z,151.93
2023-04-18T10:24:10.111Z,154.83
2023-04-18T10:25:10.175Z,158.15
2023-04-18T10:26:10.230Z,158.84
2023-04-18T10:27:10.277Z,159.51
2023-04-18T10:28:10.331Z,163.40
2023-04-18T10:29:10.353Z,162.66
2023-04-18T10:30:10.392Z,166.05
2023-04-18T10:31:10.457Z,164.84
2023-04-18T10:32:10.505Z,167.46
2023-04-18T10:33:18.376Z,169.56
2023-04-18T10:34:11.486Z,169.72
2023-04-18T10:35:10.500Z,170.08
2023-04-18T10:36:10.940Z,170.94
2023-04-18T10:37:10.471Z,172.07
2023-04-18T10:38:10.476Z,174.66
2023-04-18T10:39:10.485Z,176.92
2023-04-18T10:40:10.498Z,181.46
2023-04-18T10:41:10.958Z,180.91
2023-04-18T10:42:10.454Z,179.02
2023-04-18T10:43:10.445Z,170.92
2023-04-18T10:44:10.460Z,169.92
2023-04-18T10:45:10.494Z,173.51
2023-04-18T10:46:20.475Z,175.76
2023-04-18T10:47:11.635Z,175.86
2023-04-18T10:48:10.599Z,170.04
2023-04-18T10:49:10.554Z,140.86
2023-04-18T10:50:10.605Z,124.27
2023-04-18T10:51:10.841Z,112.57
2023-04-18T10:52:13.278Z,87.47
2023-04-18T10:53:10.678Z,65.09
2023-04-18T10:54:10.669Z,45.20
2023-04-18T10:55:10.632Z,35.54
2023-04-18T10:56:10.641Z,29.64
2023-04-18T10:57:10.743Z,18.91
2023-04-18T10:58:10.621Z,30.30
2023-04-18T10:59:10.610Z,25.00
2023-04-18T11:00:10.609Z,29.88
2023-04-18T11:01:10.657Z,22.00
2023-04-18T11:02:10.614Z,25.00
2023-04-18T11:03:10.663Z,34.88
2023-04-18T11:04:10.674Z,28.78
2023-04-18T11:05:10.540Z,33.90
2023-04-18T11:06:10.551Z,28.81
2023-04-18T11:07:10.565Z,25.73
2023-04-18T11:08:10.549Z,24.66
2023-04-18T11:09:10.544Z,23.44
2023-04-18T11:10:10.510Z,24.64
2023-04-18T11:11:10.699Z,23.41
2023-04-18T11:12:18.015Z,25.11
2023-04-18T11:13:10.497Z,24.97
2023-04-18T11:14:10.489Z,23.69
2023-04-18T11:15:10.485Z,29.22
2023-04-18T11:16:10.507Z,29.62
2023-04-18T11:17:10.454Z,27.65
2023-04-18T11:18:10.506Z,33.69
2023-04-18T11:19:10.457Z,37.52
2023-04-18T11:20:10.462Z,36.69
2023-04-18T11:21:10.459Z,24.10
2023-04-18T11:22:10.421Z,30.17
2023-04-18T11:23:10.420Z,39.31
2023-04-18T11:24:10.415Z,29.65
2023-04-18T11:25:10.434Z,35.48
2023-04-18T11:26:17.419Z,38.80
2023-04-18T11:27:10.387Z,39.47
2023-04-18T11:28:10.428Z,43.28
2023-04-18T11:29:10.363Z,50.49
2023-04-18T11:30:10.361Z,52.30
2023-04-18T11:31:10.395Z,75.64
2023-04-18T11:32:10.553Z,96.75
2023-04-18T11:33:10.473Z,101.49
2023-04-18T11:34:10.372Z,103.78
2023-04-18T11:35:10.375Z,99.15
2023-04-18T11:36:10.333Z,105.54
2023-04-18T11:37:10.650Z,110.73
2023-04-18T11:38:10.324Z,112.88
2023-04-18T11:39:10.326Z,113.22
2023-04-18T11:40:10.288Z,112.68
2023-04-18T11:41:10.341Z,112.78
2023-04-18T11:42:10.307Z,114.65
2023-04-18T11:43:10.287Z,118.17
2023-04-18T11:44:10.286Z,118.67
2023-04-18T11:45:10.278Z,118.59
2023-04-18T11:46:10.314Z,119.00
2023-04-18T11:47:10.273Z,117.39
2023-04-18T11:48:10.260Z,118.50
2023-04-18T11:49:10.265Z,118.61
2023-04-18T11:50:10.244Z,118.11
2023-04-18T11:51:10.216Z,112.82
2023-04-18T11:52:10.249Z,112.73
2023-04-18T11:53:10.225Z,111.36
2023-04-18T11:54:10.216Z,113.77
2023-04-18T11:55:10.168Z,113.16
2023-04-18T11:56:10.191Z,110.09
2023-04-18T11:57:10.527Z,110.16
2023-04-18T11:58:10.184Z,113.92
2023-04-18T11:59:10.167Z,113.82
2023-04-18T12:00:10.241Z,107.80
2023-04-18T12:01:10.174Z,106.88
2023-04-18T12:03:13.333Z,102.12
2023-04-18T12:04:10.293Z,107.11
2023-04-18T12:05:10.342Z,107.16
2023-04-18T12:06:10.126Z,107.40
2023-04-18T12:07:10.140Z,108.16
2023-04-18T12:08:10.120Z,98.42
2023-04-18T12:09:10.077Z,103.25
2023-04-18T12:10:10.142Z,100.31
2023-04-18T12:11:10.080Z,102.40
2023-04-18T12:12:10.069Z,101.62
2023-04-18T12:13:10.055Z,96.89
2023-04-18T12:14:10.096Z,96.65
2023-04-18T12:15:10.059Z,96.72
2023-04-18T12:16:10.058Z,97.40
2023-04-18T12:17:10.045Z,102.73
2023-04-18T12:18:10.056Z,105.85
2023-04-18T12:19:10.043Z,106.26
2023-04-18T12:20:10.030Z,107.58
2023-04-18T12:21:10.035Z,107.14
2023-04-18T12:22:10.044Z,106.79
2023-04-18T12:23:09.979Z,107.95
2023-04-18T12:24:09.961Z,108.31
2023-04-18T12:25:09.992Z,109.03
2023-04-18T12:26:09.970Z,111.81
2023-04-18T12:27:09.975Z,112.27
2023-04-18T12:28:09.939Z,114.99
2023-04-18T12:29:09.936Z,117.78
2023-04-18T12:30:09.952Z,117.62
2023-04-18T12:31:09.997Z,119.91
2023-04-18T12:32:09.941Z,120.24
2023-04-18T12:33:09.919Z,121.21
2023-04-18T12:34:09.902Z,121.95
2023-04-18T12:35:09.943Z,123.04
2023-04-18T12:36:09.909Z,123.41
2023-04-18T12:37:09.898Z,123.34
2023-04-18T12:38:09.893Z,124.89
2023-04-18T12:39:09.862Z,125.14
2023-04-18T12:40:09.859Z,126.66
2023-04-18T12:41:09.864Z,126.33
2023-04-18T12:42:09.850Z,126.37
2023-04-18T12:43:09.867Z,127.10
2023-04-18T12:44:09.857Z,126.54
2023-04-18T12:45:09.865Z,127.10